sensor_id;sensor_type;location;lat;lon;timestamp;P1;durP1;ratioP1;P2;durP2;ratioP2
46897;SDS011;32646;50.958;6.258;2022-12-29T00:00:14;1.15;;;0.38;;
46897;SDS011;32646;50.958;6.258;2022-12-29T00:02:41;1.00;;;0.38;;
46897;SDS011;32646;50.958;6.258;2022-12-29T00:05:08;1.58;;;0.40;;
46897;SDS011;32646;50.958;6.258;2022-12-29T00:07:35;1.00;;;0.47;;
46897;SDS011;32646;50.958;6.258;2022-12-29T00:10:01;0.55;;;0.22;;
46897;SDS011;32646;50.958;6.258;2022-12-29T00:12:28;0.85;;;0.40;;
46897;SDS011;32646;50.958;6.258;2022-12-29T00:14:54;0.77;;;0.47;;
46897;SDS011;32646;50.958;6.258;2022-12-29T00:17:21;0.98;;;0.45;;
46897;SDS011;32646;50.958;6.258;2022-12-29T00:19:47;0.75;;;0.40;;
46897;SDS011;32646;50.958;6.258;2022-12-29T00:22:14;0.50;;;0.30;;
46897;SDS011;32646;50.958;6.258;2022-12-29T00:24:41;0.57;;;0.30;;
46897;SDS011;32646;50.958;6.258;2022-12-29T00:27:09;2.05;;;0.40;;
46897;SDS011;32646;50.958;6.258;2022-12-29T00:29:37;1.05;;;0.30;;
46897;SDS011;32646;50.958;6.258;2022-12-29T00:32:04;1.48;;;0.70;;
46897;SDS011;32646;50.958;6.258;2022-12-29T00:34:32;0.60;;;0.28;;
46897;SDS011;32646;50.958;6.258;2022-12-29T00:36:59;0.77;;;0.28;;
46897;SDS011;32646;50.958;6.258;2022-12-29T00:39:26;1.40;;;0.40;;
46897;SDS011;32646;50.958;6.258;2022-12-29T00:41:53;1.20;;;0.40;;
46897;SDS011;32646;50.958;6.258;2022-12-29T00:44:19;0.50;;;0.25;;
46897;SDS011;32646;50.958;6.258;2022-12-29T00:46:46;1.80;;;0.70;;
46897;SDS011;32646;50.958;6.258;2022-12-29T00:49:13;0.70;;;0.32;;
46897;SDS011;32646;50.958;6.258;2022-12-29T00:51:40;0.60;;;0.25;;
46897;SDS011;32646;50.958;6.258;2022-12-29T00:54:06;1.02;;;0.30;;
46897;SDS011;32646;50.958;6.258;2022-12-29T00:56:33;0.45;;;0.30;;
46897;SDS011;32646;50.958;6.258;2022-12-29T00:59:00;0.73;;;0.20;;
46897;SDS011;32646;50.958;6.258;2022-12-29T01:01:28;0.30;;;0.10;;
46897;SDS011;32646;50.958;6.258;2022-12-29T01:03:55;1.88;;;0.40;;
46897;SDS011;32646;50.958;6.258;2022-12-29T01:06:29;1.00;;;0.35;;
46897;SDS011;32646;50.958;6.258;2022-12-29T01:08:55;1.70;;;0.40;;
46897;SDS011;32646;50.958;6.258;2022-12-29T01:11:22;0.70;;;0.50;;
46897;SDS011;32646;50.958;6.258;2022-12-29T01:13:48;1.17;;;0.60;;
46897;SDS011;32646;50.958;6.258;2022-12-29T01:16:15;1.02;;;0.40;;
46897;SDS011;32646;50.958;6.258;2022-12-29T01:18:43;0.82;;;0.43;;
46897;SDS011;32646;50.958;6.258;2022-12-29T01:21:09;1.67;;;0.32;;
46897;SDS011;32646;50.958;6.258;2022-12-29T01:23:36;0.77;;;0.30;;
46897;SDS011;32646;50.958;6.258;2022-12-29T01:26:09;2.97;;;0.50;;
46897;SDS011;32646;50.958;6.258;2022-12-29T01:28:36;0.73;;;0.38;;
46897;SDS011;32646;50.958;6.258;2022-12-29T01:31:03;0.98;;;0.40;;
46897;SDS011;32646;50.958;6.258;2022-12-29T01:33:30;0.88;;;0.38;;
46897;SDS011;32646;50.958;6.258;2022-12-29T01:36:10;0.93;;;0.50;;
46897;SDS011;32646;50.958;6.258;2022-12-29T01:38:39;1.00;;;0.43;;
46897;SDS011;32646;50.958;6.258;2022-12-29T01:41:06;2.17;;;0.57;;
46897;SDS011;32646;50.958;6.258;2022-12-29T01:43:44;2.08;;;0.47;;
46897;SDS011;32646;50.958;6.258;2022-12-29T01:51:31;1.50;;;0.68;;
46897;SDS011;32646;50.958;6.258;2022-12-29T01:54:01;1.05;;;0.40;;
46897;SDS011;32646;50.958;6.258;2022-12-29T01:56:31;1.15;;;0.50;;
46897;SDS011;32646;50.958;6.258;2022-12-29T01:59:02;1.63;;;0.60;;
46897;SDS011;32646;50.958;6.258;2022-12-29T02:01:33;1.40;;;0.52;;
46897;SDS011;32646;50.958;6.258;2022-12-29T02:04:00;1.13;;;0.60;;
46897;SDS011;32646;50.958;6.258;2022-12-29T02:06:35;1.98;;;0.77;;
46897;SDS011;32646;50.958;6.258;2022-12-29T02:09:09;1.58;;;0.55;;
46897;SDS011;32646;50.958;6.258;2022-12-29T02:11:36;1.23;;;0.50;;
46897;SDS011;32646;50.958;6.258;2022-12-29T02:14:10;3.28;;;0.77;;
46897;SDS011;32646;50.958;6.258;2022-12-29T02:22:28;1.80;;;0.70;;
46897;SDS011;32646;50.958;6.258;2022-12-29T02:34:19;1.05;;;0.50;;
46897;SDS011;32646;50.958;6.258;2022-12-29T02:39:23;1.80;;;0.60;;
46897;SDS011;32646;50.958;6.258;2022-12-29T02:44:47;0.98;;;0.35;;
46897;SDS011;32646;50.958;6.258;2022-12-29T02:47:47;1.35;;;0.50;;
46897;SDS011;32646;50.958;6.258;2022-12-29T02:50:25;0.98;;;0.50;;
46897;SDS011;32646;50.958;6.258;2022-12-29T02:53:00;0.88;;;0.40;;
46897;SDS011;32646;50.958;6.258;2022-12-29T02:55:32;0.90;;;0.50;;
46897;SDS011;32646;50.958;6.258;2022-12-29T03:00:36;1.75;;;0.60;;
46897;SDS011;32646;50.958;6.258;2022-12-29T03:08:34;1.48;;;0.40;;
46897;SDS011;32646;50.958;6.258;2022-12-29T03:11:14;0.82;;;0.30;;
46897;SDS011;32646;50.958;6.258;2022-12-29T03:16:27;1.23;;;0.38;;
46897;SDS011;32646;50.958;6.258;2022-12-29T03:19:04;0.63;;;0.30;;
46897;SDS011;32646;50.958;6.258;2022-12-29T03:21:40;1.27;;;0.57;;
46897;SDS011;32646;50.958;6.258;2022-12-29T03:24:10;1.15;;;0.35;;
46897;SDS011;32646;50.958;6.258;2022-12-29T03:26:38;0.95;;;0.38;;
46897;SDS011;32646;50.958;6.258;2022-12-29T03:29:07;1.55;;;0.30;;
46897;SDS011;32646;50.958;6.258;2022-12-29T03:31:35;1.25;;;0.32;;
46897;SDS011;32646;50.958;6.258;2022-12-29T03:34:04;1.50;;;0.50;;
46897;SDS011;32646;50.958;6.258;2022-12-29T03:36:33;1.85;;;0.47;;
46897;SDS011;32646;50.958;6.258;2022-12-29T03:39:09;1.38;;;0.50;;
46897;SDS011;32646;50.958;6.258;2022-12-29T03:41:38;1.13;;;0.47;;
46897;SDS011;32646;50.958;6.258;2022-12-29T03:44:08;1.30;;;0.30;;
46897;SDS011;32646;50.958;6.258;2022-12-29T03:46:35;2.17;;;0.63;;
46897;SDS011;32646;50.958;6.258;2022-12-29T03:49:02;0.98;;;0.40;;
46897;SDS011;32646;50.958;6.258;2022-12-29T03:51:28;1.67;;;0.68;;
46897;SDS011;32646;50.958;6.258;2022-12-29T03:53:55;0.98;;;0.40;;
46897;SDS011;32646;50.958;6.258;2022-12-29T03:56:21;0.77;;;0.30;;
46897;SDS011;32646;50.958;6.258;2022-12-29T03:58:48;1.35;;;0.55;;
46897;SDS011;32646;50.958;6.258;2022-12-29T04:01:15;2.35;;;0.52;;
46897;SDS011;32646;50.958;6.258;2022-12-29T04:03:43;2.13;;;0.70;;
46897;SDS011;32646;50.958;6.258;2022-12-29T04:06:09;1.52;;;0.52;;
46897;SDS011;32646;50.958;6.258;2022-12-29T04:08:36;1.02;;;0.47;;
46897;SDS011;32646;50.958;6.258;2022-12-29T04:11:02;1.60;;;0.60;;
46897;SDS011;32646;50.958;6.258;2022-12-29T04:13:29;1.25;;;0.47;;
46897;SDS011;32646;50.958;6.258;2022-12-29T04:15:55;1.00;;;0.30;;
46897;SDS011;32646;50.958;6.258;2022-12-29T04:18:22;1.23;;;0.47;;
46897;SDS011;32646;50.958;6.258;2022-12-29T04:20:48;1.77;;;0.43;;
46897;SDS011;32646;50.958;6.258;2022-12-29T04:23:15;2.55;;;0.55;;
46897;SDS011;32646;50.958;6.258;2022-12-29T04:25:45;2.10;;;0.60;;
46897;SDS011;32646;50.958;6.258;2022-12-29T04:28:12;1.30;;;0.60;;
46897;SDS011;32646;50.958;6.258;2022-12-29T04:30:39;2.70;;;0.82;;
46897;SDS011;32646;50.958;6.258;2022-12-29T04:33:06;2.13;;;0.55;;
46897;SDS011;32646;50.958;6.258;2022-12-29T04:35:32;2.75;;;0.57;;
46897;SDS011;32646;50.958;6.258;2022-12-29T04:37:59;1.90;;;0.40;;
46897;SDS011;32646;50.958;6.258;2022-12-29T04:40:26;3.08;;;0.70;;
46897;SDS011;32646;50.958;6.258;2022-12-29T04:42:52;1.38;;;0.60;;
46897;SDS011;32646;50.958;6.258;2022-12-29T04:45:19;0.75;;;0.40;;
46897;SDS011;32646;50.958;6.258;2022-12-29T04:47:46;2.65;;;0.32;;
46897;SDS011;32646;50.958;6.258;2022-12-29T04:50:12;2.80;;;0.60;;
46897;SDS011;32646;50.958;6.258;2022-12-29T04:52:39;1.65;;;0.50;;
46897;SDS011;32646;50.958;6.258;2022-12-29T04:55:06;3.85;;;0.70;;
46897;SDS011;32646;50.958;6.258;2022-12-29T04:57:33;1.00;;;0.57;;
46897;SDS011;32646;50.958;6.258;2022-12-29T04:59:59;1.48;;;0.60;;
46897;SDS011;32646;50.958;6.258;2022-12-29T05:02:26;1.17;;;0.60;;
46897;SDS011;32646;50.958;6.258;2022-12-29T05:04:53;1.95;;;0.60;;
46897;SDS011;32646;50.958;6.258;2022-12-29T05:07:19;1.27;;;0.40;;
46897;SDS011;32646;50.958;6.258;2022-12-29T05:09:46;0.95;;;0.40;;
46897;SDS011;32646;50.958;6.258;2022-12-29T05:12:12;1.20;;;0.35;;
46897;SDS011;32646;50.958;6.258;2022-12-29T05:14:39;1.05;;;0.43;;
46897;SDS011;32646;50.958;6.258;2022-12-29T05:17:05;2.80;;;0.57;;
46897;SDS011;32646;50.958;6.258;2022-12-29T05:19:32;3.50;;;0.68;;
46897;SDS011;32646;50.958;6.258;2022-12-29T05:21:59;1.90;;;1.10;;
46897;SDS011;32646;50.958;6.258;2022-12-29T05:24:25;2.05;;;0.52;;
46897;SDS011;32646;50.958;6.258;2022-12-29T05:26:52;2.13;;;0.70;;
46897;SDS011;32646;50.958;6.258;2022-12-29T05:29:18;1.20;;;0.40;;
46897;SDS011;32646;50.958;6.258;2022-12-29T05:31:45;3.00;;;0.75;;
46897;SDS011;32646;50.958;6.258;2022-12-29T05:34:12;3.78;;;0.55;;
46897;SDS011;32646;50.958;6.258;2022-12-29T05:36:39;1.75;;;0.50;;
46897;SDS011;32646;50.958;6.258;2022-12-29T05:39:05;1.23;;;0.35;;
46897;SDS011;32646;50.958;6.258;2022-12-29T05:41:32;0.88;;;0.28;;
46897;SDS011;32646;50.958;6.258;2022-12-29T05:43:59;2.30;;;0.60;;
46897;SDS011;32646;50.958;6.258;2022-12-29T05:46:26;0.95;;;0.30;;
46897;SDS011;32646;50.958;6.258;2022-12-29T05:48:53;2.42;;;0.63;;
46897;SDS011;32646;50.958;6.258;2022-12-29T05:51:19;0.93;;;0.35;;
46897;SDS011;32646;50.958;6.258;2022-12-29T05:53:46;1.67;;;0.30;;
46897;SDS011;32646;50.958;6.258;2022-12-29T05:56:13;1.13;;;0.25;;
46897;SDS011;32646;50.958;6.258;2022-12-29T05:58:39;1.50;;;0.45;;
46897;SDS011;32646;50.958;6.258;2022-12-29T06:01:06;1.02;;;0.50;;
46897;SDS011;32646;50.958;6.258;2022-12-29T06:03:32;0.03;;;0.03;;
46897;SDS011;32646;50.958;6.258;2022-12-29T06:05:59;3.30;;;0.50;;
46897;SDS011;32646;50.958;6.258;2022-12-29T06:08:26;0.77;;;0.40;;
46897;SDS011;32646;50.958;6.258;2022-12-29T06:10:52;1.20;;;0.43;;
46897;SDS011;32646;50.958;6.258;2022-12-29T06:13:19;3.53;;;0.50;;
46897;SDS011;32646;50.958;6.258;2022-12-29T06:15:47;2.72;;;0.52;;
46897;SDS011;32646;50.958;6.258;2022-12-29T06:18:14;4.90;;;0.73;;
46897;SDS011;32646;50.958;6.258;2022-12-29T06:20:45;2.38;;;0.60;;
46897;SDS011;32646;50.958;6.258;2022-12-29T06:23:12;1.55;;;0.40;;
46897;SDS011;32646;50.958;6.258;2022-12-29T06:25:39;1.63;;;0.40;;
46897;SDS011;32646;50.958;6.258;2022-12-29T06:28:05;2.38;;;0.40;;
46897;SDS011;32646;50.958;6.258;2022-12-29T06:30:32;2.67;;;0.45;;
46897;SDS011;32646;50.958;6.258;2022-12-29T06:32:59;4.18;;;0.50;;
46897;SDS011;32646;50.958;6.258;2022-12-29T06:35:26;3.47;;;0.70;;
46897;SDS011;32646;50.958;6.258;2022-12-29T06:37:52;1.45;;;0.47;;
46897;SDS011;32646;50.958;6.258;2022-12-29T06:40:19;1.95;;;0.43;;
46897;SDS011;32646;50.958;6.258;2022-12-29T06:42:45;1.13;;;0.65;;
46897;SDS011;32646;50.958;6.258;2022-12-29T06:45:12;1.17;;;0.32;;
46897;SDS011;32646;50.958;6.258;2022-12-29T06:47:39;0.88;;;0.40;;
46897;SDS011;32646;50.958;6.258;2022-12-29T06:50:05;2.10;;;0.47;;
46897;SDS011;32646;50.958;6.258;2022-12-29T06:52:32;3.40;;;0.93;;
46897;SDS011;32646;50.958;6.258;2022-12-29T06:54:59;1.27;;;0.50;;
46897;SDS011;32646;50.958;6.258;2022-12-29T06:57:25;2.00;;;0.50;;
46897;SDS011;32646;50.958;6.258;2022-12-29T06:59:52;4.15;;;0.57;;
46897;SDS011;32646;50.958;6.258;2022-12-29T07:02:18;1.13;;;0.52;;
46897;SDS011;32646;50.958;6.258;2022-12-29T07:04:45;4.03;;;1.00;;
46897;SDS011;32646;50.958;6.258;2022-12-29T07:07:11;3.35;;;0.82;;
46897;SDS011;32646;50.958;6.258;2022-12-29T07:09:38;1.33;;;0.50;;
46897;SDS011;32646;50.958;6.258;2022-12-29T07:12:04;2.45;;;0.85;;
46897;SDS011;32646;50.958;6.258;2022-12-29T07:14:32;3.20;;;0.85;;
46897;SDS011;32646;50.958;6.258;2022-12-29T07:17:07;2.50;;;0.63;;
46897;SDS011;32646;50.958;6.258;2022-12-29T07:19:34;2.10;;;0.50;;
46897;SDS011;32646;50.958;6.258;2022-12-29T07:22:00;4.50;;;0.80;;
46897;SDS011;32646;50.958;6.258;2022-12-29T07:24:27;2.05;;;0.70;;
46897;SDS011;32646;50.958;6.258;2022-12-29T07:26:53;3.08;;;0.68;;
46897;SDS011;32646;50.958;6.258;2022-12-29T07:29:20;2.60;;;0.50;;
46897;SDS011;32646;50.958;6.258;2022-12-29T07:31:46;1.90;;;0.60;;
46897;SDS011;32646;50.958;6.258;2022-12-29T07:34:13;1.65;;;0.43;;
46897;SDS011;32646;50.958;6.258;2022-12-29T07:36:39;3.35;;;0.60;;
46897;SDS011;32646;50.958;6.258;2022-12-29T07:39:06;1.67;;;0.45;;
46897;SDS011;32646;50.958;6.258;2022-12-29T07:41:32;3.03;;;0.73;;
46897;SDS011;32646;50.958;6.258;2022-12-29T07:43:59;1.85;;;0.50;;
46897;SDS011;32646;50.958;6.258;2022-12-29T07:46:25;1.48;;;0.40;;
46897;SDS011;32646;50.958;6.258;2022-12-29T07:49:13;2.78;;;0.57;;
46897;SDS011;32646;50.958;6.258;2022-12-29T07:51:39;2.22;;;0.55;;
46897;SDS011;32646;50.958;6.258;2022-12-29T07:54:06;2.90;;;0.68;;
46897;SDS011;32646;50.958;6.258;2022-12-29T07:56:32;4.78;;;1.33;;
46897;SDS011;32646;50.958;6.258;2022-12-29T07:58:59;2.28;;;0.73;;
46897;SDS011;32646;50.958;6.258;2022-12-29T08:01:25;3.33;;;0.77;;
46897;SDS011;32646;50.958;6.258;2022-12-29T08:03:52;1.80;;;0.40;;
46897;SDS011;32646;50.958;6.258;2022-12-29T08:06:22;1.42;;;0.52;;
46897;SDS011;32646;50.958;6.258;2022-12-29T08:08:49;3.85;;;0.77;;
46897;SDS011;32646;50.958;6.258;2022-12-29T08:11:16;1.75;;;0.50;;
46897;SDS011;32646;50.958;6.258;2022-12-29T08:13:42;5.03;;;0.70;;
46897;SDS011;32646;50.958;6.258;2022-12-29T08:16:09;4.05;;;0.65;;
46897;SDS011;32646;50.958;6.258;2022-12-29T08:18:35;1.90;;;0.50;;
46897;SDS011;32646;50.958;6.258;2022-12-29T08:21:02;4.47;;;0.50;;
46897;SDS011;32646;50.958;6.258;2022-12-29T08:23:30;2.28;;;0.43;;
46897;SDS011;32646;50.958;6.258;2022-12-29T08:26:00;3.58;;;0.88;;
46897;SDS011;32646;50.958;6.258;2022-12-29T08:28:28;5.10;;;0.70;;
46897;SDS011;32646;50.958;6.258;2022-12-29T08:30:59;3.50;;;0.70;;
46897;SDS011;32646;50.958;6.258;2022-12-29T08:33:27;2.55;;;0.45;;
46897;SDS011;32646;50.958;6.258;2022-12-29T08:36:01;3.30;;;0.80;;
46897;SDS011;32646;50.958;6.258;2022-12-29T08:38:30;1.30;;;0.35;;
46897;SDS011;32646;50.958;6.258;2022-12-29T08:40:57;1.67;;;0.52;;
46897;SDS011;32646;50.958;6.258;2022-12-29T08:43:24;6.47;;;0.80;;
46897;SDS011;32646;50.958;6.258;2022-12-29T08:45:51;9.35;;;1.23;;
46897;SDS011;32646;50.958;6.258;2022-12-29T08:48:18;2.30;;;0.65;;
46897;SDS011;32646;50.958;6.258;2022-12-29T08:50:45;3.38;;;0.73;;
46897;SDS011;32646;50.958;6.258;2022-12-29T08:53:12;2.33;;;0.40;;
46897;SDS011;32646;50.958;6.258;2022-12-29T08:55:39;2.22;;;0.63;;
46897;SDS011;32646;50.958;6.258;2022-12-29T08:58:05;2.42;;;0.60;;
46897;SDS011;32646;50.958;6.258;2022-12-29T09:00:32;3.47;;;1.02;;
46897;SDS011;32646;50.958;6.258;2022-12-29T09:02:59;4.78;;;1.02;;
46897;SDS011;32646;50.958;6.258;2022-12-29T09:05:25;3.33;;;0.80;;
46897;SDS011;32646;50.958;6.258;2022-12-29T09:07:52;6.13;;;1.75;;
46897;SDS011;32646;50.958;6.258;2022-12-29T09:10:18;2.70;;;0.70;;
46897;SDS011;32646;50.958;6.258;2022-12-29T09:12:45;1.73;;;0.50;;
46897;SDS011;32646;50.958;6.258;2022-12-29T09:15:12;3.70;;;0.80;;
46897;SDS011;32646;50.958;6.258;2022-12-29T09:17:38;5.20;;;0.90;;
46897;SDS011;32646;50.958;6.258;2022-12-29T09:20:05;5.50;;;0.65;;
46897;SDS011;32646;50.958;6.258;2022-12-29T09:22:32;4.72;;;0.80;;
46897;SDS011;32646;50.958;6.258;2022-12-29T09:24:58;7.68;;;1.05;;
46897;SDS011;32646;50.958;6.258;2022-12-29T09:27:25;3.85;;;0.70;;
46897;SDS011;32646;50.958;6.258;2022-12-29T09:29:51;4.32;;;0.60;;
46897;SDS011;32646;50.958;6.258;2022-12-29T09:32:18;4.10;;;0.70;;
46897;SDS011;32646;50.958;6.258;2022-12-29T09:34:47;5.22;;;0.88;;
46897;SDS011;32646;50.958;6.258;2022-12-29T09:37:13;5.50;;;1.20;;
46897;SDS011;32646;50.958;6.258;2022-12-29T09:39:40;2.53;;;0.60;;
46897;SDS011;32646;50.958;6.258;2022-12-29T09:45:09;6.70;;;0.90;;
46897;SDS011;32646;50.958;6.258;2022-12-29T09:47:43;6.35;;;0.60;;
46897;SDS011;32646;50.958;6.258;2022-12-29T09:50:18;6.80;;;1.30;;
46897;SDS011;32646;50.958;6.258;2022-12-29T09:52:54;1.85;;;0.43;;
46897;SDS011;32646;50.958;6.258;2022-12-29T09:55:36;5.38;;;0.95;;
46897;SDS011;32646;50.958;6.258;2022-12-29T09:58:09;4.85;;;0.90;;
46897;SDS011;32646;50.958;6.258;2022-12-29T10:00:41;4.28;;;0.82;;
46897;SDS011;32646;50.958;6.258;2022-12-29T10:03:20;3.20;;;0.52;;
46897;SDS011;32646;50.958;6.258;2022-12-29T10:05:53;11.05;;;0.82;;
46897;SDS011;32646;50.958;6.258;2022-12-29T10:08:36;5.32;;;1.02;;
46897;SDS011;32646;50.958;6.258;2022-12-29T10:11:28;6.22;;;1.33;;
46897;SDS011;32646;50.958;6.258;2022-12-29T10:14:16;8.93;;;1.00;;
46897;SDS011;32646;50.958;6.258;2022-12-29T10:25:24;5.03;;;0.90;;
46897;SDS011;32646;50.958;6.258;2022-12-29T10:27:57;4.80;;;0.80;;
46897;SDS011;32646;50.958;6.258;2022-12-29T10:30:26;1.65;;;0.40;;
46897;SDS011;32646;50.958;6.258;2022-12-29T10:33:00;3.60;;;0.95;;
46897;SDS011;32646;50.958;6.258;2022-12-29T10:35:35;2.08;;;0.52;;
46897;SDS011;32646;50.958;6.258;2022-12-29T10:38:15;4.32;;;0.70;;
46897;SDS011;32646;50.958;6.258;2022-12-29T10:45:48;5.00;;;1.10;;
46897;SDS011;32646;50.958;6.258;2022-12-29T10:48:22;1.15;;;0.50;;
46897;SDS011;32646;50.958;6.258;2022-12-29T10:51:04;3.00;;;0.50;;
46897;SDS011;32646;50.958;6.258;2022-12-29T10:56:20;1.92;;;0.60;;
46897;SDS011;32646;50.958;6.258;2022-12-29T10:58:48;2.65;;;0.60;;
46897;SDS011;32646;50.958;6.258;2022-12-29T11:01:16;3.85;;;0.73;;
46897;SDS011;32646;50.958;6.258;2022-12-29T11:04:07;5.72;;;0.73;;
46897;SDS011;32646;50.958;6.258;2022-12-29T11:06:51;3.50;;;0.80;;
46897;SDS011;32646;50.958;6.258;2022-12-29T11:09:31;3.47;;;0.82;;
46897;SDS011;32646;50.958;6.258;2022-12-29T11:12:24;4.82;;;0.80;;
46897;SDS011;32646;50.958;6.258;2022-12-29T11:17:56;7.10;;;1.17;;
46897;SDS011;32646;50.958;6.258;2022-12-29T11:20:33;5.10;;;0.80;;
46897;SDS011;32646;50.958;6.258;2022-12-29T11:23:02;2.95;;;0.50;;
46897;SDS011;32646;50.958;6.258;2022-12-29T11:25:30;5.05;;;0.80;;
46897;SDS011;32646;50.958;6.258;2022-12-29T11:28:01;4.35;;;0.98;;
46897;SDS011;32646;50.958;6.258;2022-12-29T11:30:44;1.88;;;0.57;;
46897;SDS011;32646;50.958;6.258;2022-12-29T11:33:10;2.47;;;0.65;;
46897;SDS011;32646;50.958;6.258;2022-12-29T11:35:41;3.67;;;1.38;;
46897;SDS011;32646;50.958;6.258;2022-12-29T11:38:31;3.95;;;0.93;;
46897;SDS011;32646;50.958;6.258;2022-12-29T11:41:01;2.78;;;0.63;;
46897;SDS011;32646;50.958;6.258;2022-12-29T11:43:33;4.60;;;0.75;;
46897;SDS011;32646;50.958;6.258;2022-12-29T11:46:03;6.65;;;1.20;;
46897;SDS011;32646;50.958;6.258;2022-12-29T11:48:40;5.90;;;0.77;;
46897;SDS011;32646;50.958;6.258;2022-12-29T11:51:08;3.85;;;0.70;;
46897;SDS011;32646;50.958;6.258;2022-12-29T11:56:06;3.97;;;1.52;;
46897;SDS011;32646;50.958;6.258;2022-12-29T12:01:05;3.63;;;0.73;;
46897;SDS011;32646;50.958;6.258;2022-12-29T12:03:42;3.03;;;0.63;;
46897;SDS011;32646;50.958;6.258;2022-12-29T12:06:14;4.38;;;1.10;;
46897;SDS011;32646;50.958;6.258;2022-12-29T12:08:46;4.78;;;0.80;;
46897;SDS011;32646;50.958;6.258;2022-12-29T12:11:29;3.70;;;0.70;;
46897;SDS011;32646;50.958;6.258;2022-12-29T12:16:48;6.15;;;0.90;;
46897;SDS011;32646;50.958;6.258;2022-12-29T12:25:09;6.43;;;1.67;;
46897;SDS011;32646;50.958;6.258;2022-12-29T12:30:20;3.67;;;0.75;;
46897;SDS011;32646;50.958;6.258;2022-12-29T12:35:20;3.53;;;0.60;;
46897;SDS011;32646;50.958;6.258;2022-12-29T12:40:54;3.22;;;0.40;;
46897;SDS011;32646;50.958;6.258;2022-12-29T12:49:00;2.55;;;0.93;;
46897;SDS011;32646;50.958;6.258;2022-12-29T12:51:33;2.88;;;0.60;;
46897;SDS011;32646;50.958;6.258;2022-12-29T13:05:13;4.97;;;0.70;;
46897;SDS011;32646;50.958;6.258;2022-12-29T13:08:19;3.55;;;0.65;;
46897;SDS011;32646;50.958;6.258;2022-12-29T13:11:11;2.85;;;0.90;;
46897;SDS011;32646;50.958;6.258;2022-12-29T13:24:34;3.08;;;0.85;;
46897;SDS011;32646;50.958;6.258;2022-12-29T13:27:33;1.50;;;0.40;;
46897;SDS011;32646;50.958;6.258;2022-12-29T13:30:26;2.45;;;0.50;;
46897;SDS011;32646;50.958;6.258;2022-12-29T13:33:17;4.57;;;0.90;;
46897;SDS011;32646;50.958;6.258;2022-12-29T13:36:23;5.10;;;0.60;;
46897;SDS011;32646;50.958;6.258;2022-12-29T13:39:11;2.03;;;0.65;;
46897;SDS011;32646;50.958;6.258;2022-12-29T13:41:50;3.75;;;0.77;;
46897;SDS011;32646;50.958;6.258;2022-12-29T13:44:21;3.50;;;1.15;;
46897;SDS011;32646;50.958;6.258;2022-12-29T13:47:05;3.35;;;0.80;;
46897;SDS011;32646;50.958;6.258;2022-12-29T13:49:57;3.17;;;0.70;;
46897;SDS011;32646;50.958;6.258;2022-12-29T13:52:37;1.70;;;0.40;;
46897;SDS011;32646;50.958;6.258;2022-12-29T13:55:26;3.70;;;0.80;;
46897;SDS011;32646;50.958;6.258;2022-12-29T14:00:53;5.28;;;0.98;;
46897;SDS011;32646;50.958;6.258;2022-12-29T14:03:43;1.88;;;0.47;;
46897;SDS011;32646;50.958;6.258;2022-12-29T14:06:21;4.72;;;0.70;;
46897;SDS011;32646;50.958;6.258;2022-12-29T14:08:53;4.53;;;0.68;;
46897;SDS011;32646;50.958;6.258;2022-12-29T14:11:31;3.30;;;0.60;;
46897;SDS011;32646;50.958;6.258;2022-12-29T14:14:10;3.90;;;0.65;;
46897;SDS011;32646;50.958;6.258;2022-12-29T14:16:48;1.80;;;0.60;;
46897;SDS011;32646;50.958;6.258;2022-12-29T14:19:19;3.55;;;0.60;;
46897;SDS011;32646;50.958;6.258;2022-12-29T14:21:53;2.83;;;0.70;;
46897;SDS011;32646;50.958;6.258;2022-12-29T14:26:58;3.25;;;0.98;;
46897;SDS011;32646;50.958;6.258;2022-12-29T14:31:54;2.85;;;1.05;;
46897;SDS011;32646;50.958;6.258;2022-12-29T14:37:00;4.18;;;0.47;;
46897;SDS011;32646;50.958;6.258;2022-12-29T14:39:39;3.78;;;0.82;;
46897;SDS011;32646;50.958;6.258;2022-12-29T14:44:56;2.53;;;0.75;;
46897;SDS011;32646;50.958;6.258;2022-12-29T14:47:31;2.63;;;1.40;;
46897;SDS011;32646;50.958;6.258;2022-12-29T14:50:05;4.63;;;0.95;;
46897;SDS011;32646;50.958;6.258;2022-12-29T14:55:46;4.45;;;0.85;;
46897;SDS011;32646;50.958;6.258;2022-12-29T14:58:26;4.03;;;0.63;;
46897;SDS011;32646;50.958;6.258;2022-12-29T15:00:58;1.60;;;0.60;;
46897;SDS011;32646;50.958;6.258;2022-12-29T15:05:58;2.28;;;0.80;;
46897;SDS011;32646;50.958;6.258;2022-12-29T15:08:36;1.60;;;0.70;;
46897;SDS011;32646;50.958;6.258;2022-12-29T15:11:21;2.60;;;0.68;;
46897;SDS011;32646;50.958;6.258;2022-12-29T15:13:49;2.28;;;0.70;;
46897;SDS011;32646;50.958;6.258;2022-12-29T15:16:30;5.05;;;0.98;;
46897;SDS011;32646;50.958;6.258;2022-12-29T15:21:27;2.42;;;0.57;;
46897;SDS011;32646;50.958;6.258;2022-12-29T15:23:56;5.15;;;1.40;;
46897;SDS011;32646;50.958;6.258;2022-12-29T15:26:23;6.75;;;1.17;;
46897;SDS011;32646;50.958;6.258;2022-12-29T15:29:03;6.28;;;0.85;;
46897;SDS011;32646;50.958;6.258;2022-12-29T15:31:29;5.38;;;1.40;;
46897;SDS011;32646;50.958;6.258;2022-12-29T15:34:12;3.38;;;0.70;;
46897;SDS011;32646;50.958;6.258;2022-12-29T15:36:39;4.75;;;0.82;;
46897;SDS011;32646;50.958;6.258;2022-12-29T15:42:09;5.68;;;1.05;;
46897;SDS011;32646;50.958;6.258;2022-12-29T15:44:46;4.03;;;0.77;;
46897;SDS011;32646;50.958;6.258;2022-12-29T15:47:20;3.35;;;0.90;;
46897;SDS011;32646;50.958;6.258;2022-12-29T15:49:59;6.38;;;1.70;;
46897;SDS011;32646;50.958;6.258;2022-12-29T15:52:35;7.30;;;3.75;;
46897;SDS011;32646;50.958;6.258;2022-12-29T15:55:05;5.32;;;1.45;;
46897;SDS011;32646;50.958;6.258;2022-12-29T15:57:44;6.35;;;2.45;;
46897;SDS011;32646;50.958;6.258;2022-12-29T16:00:24;7.05;;;2.00;;
46897;SDS011;32646;50.958;6.258;2022-12-29T16:02:55;11.85;;;5.22;;
46897;SDS011;32646;50.958;6.258;2022-12-29T16:05:31;6.30;;;3.15;;
46897;SDS011;32646;50.958;6.258;2022-12-29T16:07:59;3.28;;;1.00;;
46897;SDS011;32646;50.958;6.258;2022-12-29T16:13:05;5.53;;;1.65;;
46897;SDS011;32646;50.958;6.258;2022-12-29T16:15:54;5.82;;;2.67;;
46897;SDS011;32646;50.958;6.258;2022-12-29T16:18:28;6.90;;;1.80;;
46897;SDS011;32646;50.958;6.258;2022-12-29T16:20:58;6.45;;;1.77;;
46897;SDS011;32646;50.958;6.258;2022-12-29T16:23:26;3.72;;;1.15;;
46897;SDS011;32646;50.958;6.258;2022-12-29T16:25:55;14.75;;;4.85;;
46897;SDS011;32646;50.958;6.258;2022-12-29T16:28:23;7.20;;;3.28;;
46897;SDS011;32646;50.958;6.258;2022-12-29T16:31:46;3.55;;;1.55;;
46897;SDS011;32646;50.958;6.258;2022-12-29T16:33:52;4.25;;;0.90;;
46897;SDS011;32646;50.958;6.258;2022-12-29T16:36:28;3.83;;;1.00;;
46897;SDS011;32646;50.958;6.258;2022-12-29T16:41:58;7.10;;;1.48;;
46897;SDS011;32646;50.958;6.258;2022-12-29T16:44:26;8.13;;;1.95;;
46897;SDS011;32646;50.958;6.258;2022-12-29T16:49:29;6.80;;;1.05;;
46897;SDS011;32646;50.958;6.258;2022-12-29T16:51:57;2.67;;;0.90;;
46897;SDS011;32646;50.958;6.258;2022-12-29T16:54:31;2.60;;;0.95;;
46897;SDS011;32646;50.958;6.258;2022-12-29T16:57:01;6.18;;;1.33;;
46897;SDS011;32646;50.958;6.258;2022-12-29T17:02:08;6.57;;;1.40;;
46897;SDS011;32646;50.958;6.258;2022-12-29T17:04:41;3.42;;;0.95;;
46897;SDS011;32646;50.958;6.258;2022-12-29T17:07:12;5.03;;;1.30;;
46897;SDS011;32646;50.958;6.258;2022-12-29T17:09:42;4.07;;;0.85;;
46897;SDS011;32646;50.958;6.258;2022-12-29T17:12:10;7.22;;;1.27;;
46897;SDS011;32646;50.958;6.258;2022-12-29T17:19:49;4.88;;;1.08;;
46897;SDS011;32646;50.958;6.258;2022-12-29T17:22:19;6.63;;;1.38;;
46897;SDS011;32646;50.958;6.258;2022-12-29T17:24:48;8.07;;;1.15;;
46897;SDS011;32646;50.958;6.258;2022-12-29T17:27:20;5.05;;;1.30;;
46897;SDS011;32646;50.958;6.258;2022-12-29T17:29:47;4.38;;;1.13;;
46897;SDS011;32646;50.958;6.258;2022-12-29T17:32:15;9.85;;;2.45;;
46897;SDS011;32646;50.958;6.258;2022-12-29T17:34:42;7.18;;;1.23;;
46897;SDS011;32646;50.958;6.258;2022-12-29T17:39:51;8.75;;;1.65;;